Time;durP1;ratioP1;P1;durP2;ratioP2;P2;SDS_P1;SDS_P2;PMS_P1;PMS_P2;Temp;Humidity;BMP_temperature;BMP_pressure;BME280_temperature;BME280_humidity;BME280_pressure;Samples;Min_cycle;Max_cycle;Signal;HPM_P1;HPM_P2
2021/09/07 00:05:19;;;;;;;0.52;0.52;;;24.70;99.90;;;;;;20648115;23;20347;-69
2021/09/07 00:15:23;;;;;;;0.30;0.20;;;24.40;99.90;;;;;;20697410;28;20225;-69
2021/09/07 00:25:28;;;;;;;0.20;0.15;;;24.10;99.90;;;;;;20697892;28;20203;-68
2021/09/07 00:35:32;;;;;;;0.50;0.40;;;23.90;99.90;;;;;;20673203;28;20681;-70
2021/09/07 00:45:38;;;;;;;0.52;0.45;;;23.90;99.90;;;;;;20696695;28;20195;-70
2021/09/07 00:55:41;;;;;;;0.60;0.60;;;23.70;99.90;;;;;;20696370;28;20571;-68
2021/09/07 01:05:47;;;;;;;0.55;0.55;;;23.50;99.90;;;;;;20707628;23;20838;-67
2021/09/07 01:15:51;;;;;;;0.22;0.20;;;23.50;99.90;;;;;;20676795;28;20277;-65
2021/09/07 01:25:56;;;;;;;0.60;0.32;;;23.40;99.90;;;;;;20708782;28;20195;-65
2021/09/07 01:35:59;;;;;;;0.30;0.20;;;23.40;99.90;;;;;;20683395;28;20229;-65
2021/09/07 01:46:04;;;;;;;1.27;0.57;;;23.20;99.90;;;;;;20701152;28;20559;-66
2021/09/07 01:56:08;;;;;;;1.00;0.88;;;23.10;99.90;;;;;;20688790;28;20309;-65
2021/09/07 02:06:15;;;;;;;1.85;0.30;;;23.10;99.90;;;;;;20719564;23;20237;-71
2021/09/07 02:16:19;;;;;;;0.35;0.25;;;23.10;99.90;;;;;;20706866;28;21219;-68
2021/09/07 02:26:24;;;;;;;0.70;0.30;;;23.00;99.90;;;;;;20704095;28;20644;-68
2021/09/07 02:36:28;;;;;;;0.30;0.30;;;23.00;99.90;;;;;;20681673;28;20230;-67
2021/09/07 02:46:33;;;;;;;0.60;0.52;;;23.00;99.90;;;;;;20704603;28;20555;-69
2021/09/07 02:56:36;;;;;;;0.20;0.20;;;23.00;99.90;;;;;;20703977;28;20586;-67
2021/09/07 03:06:46;;;;;;;0.28;0.28;;;22.90;99.90;;;;;;20714530;23;20747;-66
2021/09/07 03:16:49;;;;;;;0.20;0.00;;;23.00;99.90;;;;;;20700603;28;20229;-66
2021/09/07 03:26:54;;;;;;;0.70;0.70;;;23.00;99.90;;;;;;20699935;28;20199;-65
2021/09/07 03:36:58;;;;;;;0.20;0.00;;;22.90;99.90;;;;;;20692811;28;20226;-66
2021/09/07 03:47:04;;;;;;;0.22;0.13;;;22.90;99.90;;;;;;20698515;28;20670;-65
2021/09/07 03:57:07;;;;;;;0.32;0.32;;;22.90;99.90;;;;;;20704026;28;20233;-66
2021/09/07 04:07:12;;;;;;;0.20;0.13;;;23.00;99.90;;;;;;20701904;28;20226;-64
2021/09/07 04:17:16;;;;;;;0.20;0.20;;;22.90;99.90;;;;;;20694154;28;20230;-65
2021/09/07 04:27:21;;;;;;;0.30;0.30;;;22.90;99.90;;;;;;20697105;28;20218;-66
2021/09/07 04:37:25;;;;;;;0.73;0.65;;;22.90;99.90;;;;;;20689620;28;20227;-66
2021/09/07 04:47:29;;;;;;;0.20;0.00;;;22.90;99.90;;;;;;20677783;28;20210;-65
2021/09/07 04:57:33;;;;;;;0.32;0.32;;;23.10;99.90;;;;;;20705393;28;20214;-66
2021/09/07 05:07:38;;;;;;;0.32;0.22;;;23.30;99.90;;;;;;20695417;28;20227;-67
2021/09/07 05:17:42;;;;;;;0.40;0.30;;;23.40;99.90;;;;;;20709568;28;20428;-66
2021/09/07 05:27:48;;;;;;;0.82;0.82;;;23.60;99.90;;;;;;20707984;28;20297;-68
2021/09/07 05:37:53;;;;;;;0.30;0.20;;;23.70;99.90;;;;;;20709147;28;20309;-65
2021/09/07 05:47:59;;;;;;;1.05;0.70;;;23.90;99.90;;;;;;20708924;28;20203;-66
2021/09/07 05:58:02;;;;;;;0.30;0.20;;;23.90;99.90;;;;;;20707930;28;20227;-66
2021/09/07 06:08:07;;;;;;;1.85;0.80;;;24.30;99.90;;;;;;20704238;28;20231;-67
2021/09/07 06:18:11;;;;;;;0.35;0.35;;;24.60;99.90;;;;;;20702194;28;20226;-67
2021/09/07 06:28:16;;;;;;;0.40;0.40;;;24.80;99.90;;;;;;20622490;28;20214;-66
2021/09/07 06:38:19;;;;;;;1.10;0.70;;;25.20;99.90;;;;;;20604929;28;20530;-65
2021/09/07 06:48:24;;;;;;;0.75;0.73;;;25.60;99.90;;;;;;20619501;28;20203;-66
2021/09/07 06:58:28;;;;;;;0.47;0.47;;;25.60;99.90;;;;;;20622073;28;20231;-66
2021/09/07 07:08:33;;;;;;;2.00;0.95;;;25.90;99.90;;;;;;20687952;28;20644;-65
2021/09/07 07:18:36;;;;;;;0.77;0.45;;;26.00;99.90;;;;;;20698187;28;20225;-66
2021/09/07 07:28:42;;;;;;;4.97;0.47;;;26.30;99.90;;;;;;20698825;28;20199;-66
2021/09/07 07:38:46;;;;;;;0.20;0.10;;;26.40;99.90;;;;;;20701071;28;20765;-65
2021/09/07 07:48:51;;;;;;;0.20;0.20;;;26.70;99.90;;;;;;20697019;28;20223;-65
2021/09/07 07:58:54;;;;;;;0.68;0.68;;;26.80;99.90;;;;;;20697102;28;20195;-64
2021/09/07 08:08:59;;;;;;;0.20;0.20;;;27.10;99.90;;;;;;20695611;28;20695;-66
2021/09/07 08:19:03;;;;;;;1.75;1.55;;;27.20;99.90;;;;;;20687905;28;20192;-66
2021/09/07 08:29:08;;;;;;;0.43;0.28;;;27.20;99.90;;;;;;20563372;28;20555;-66
2021/09/07 08:39:12;;;;;;;0.60;0.55;;;27.30;99.90;;;;;;20604801;28;20547;-68
2021/09/07 08:49:19;;;;;;;0.65;0.65;;;27.50;99.90;;;;;;20531978;28;20192;-65
2021/09/07 08:59:23;;;;;;;0.88;0.73;;;27.30;99.90;;;;;;20532705;28;20314;-68
2021/09/07 09:09:38;;;;;;;2.55;0.52;;;27.60;99.90;;;;;;20533342;28;20351;-66
2021/09/07 09:19:49;;;;;;;0.77;0.40;;;27.80;99.90;;;;;;20568565;28;20203;-67
2021/09/07 09:29:54;;;;;;;0.47;0.47;;;28.30;99.90;;;;;;20591964;28;20226;-65
2021/09/07 09:40:00;;;;;;;1.85;0.65;;;28.20;99.90;;;;;;20616763;28;20203;-66
2021/09/07 09:50:06;;;;;;;0.43;0.43;;;28.30;99.90;;;;;;20601900;28;20307;-70
2021/09/07 10:00:11;;;;;;;0.80;0.65;;;28.00;99.90;;;;;;20608930;28;20226;-68
2021/09/07 10:10:21;;;;;;;0.20;0.00;;;27.90;99.90;;;;;;20701545;28;20364;-67
2021/09/07 10:20:46;;;;;;;0.30;0.30;;;28.10;99.90;;;;;;20677776;28;20202;-67
2021/09/07 10:31:01;;;;;;;0.35;0.30;;;28.70;99.90;;;;;;20700485;28;20683;-64
2021/09/07 10:41:05;;;;;;;0.35;0.35;;;29.20;99.90;;;;;;20700126;28;20331;-68
2021/09/07 10:51:10;;;;;;;0.93;0.40;;;29.70;99.90;;;;;;20702772;28;20229;-65
2021/09/07 11:01:27;;;;;;;0.68;0.60;;;30.30;99.90;;;;;;20651277;28;20564;-64
2021/09/07 11:11:33;;;;;;;0.40;0.40;;;30.50;99.90;;;;;;20683036;28;20218;-67
2021/09/07 11:21:37;;;;;;;0.35;0.35;;;30.40;99.90;;;;;;20654411;28;20198;-69
2021/09/07 11:31:42;;;;;;;0.82;0.28;;;29.60;99.90;;;;;;20655342;28;20245;-68
2021/09/07 11:41:46;;;;;;;0.47;0.40;;;29.20;99.90;;;;;;20622187;28;20203;-67
2021/09/07 11:51:55;;;;;;;0.40;0.40;;;28.90;99.90;;;;;;20613534;28;20227;-67
2021/09/07 12:01:58;;;;;;;1.08;0.82;;;29.00;99.90;;;;;;20635190;28;20223;-67
2021/09/07 12:12:09;;;;;;;0.20;0.10;;;29.20;99.90;;;;;;20695936;28;20223;-67
2021/09/07 12:22:17;;;;;;;0.93;0.85;;;29.60;99.90;;;;;;20629499;28;20218;-66
2021/09/07 12:32:21;;;;;;;0.45;0.45;;;29.70;99.90;;;;;;20610018;28;20576;-67
2021/09/07 12:42:25;;;;;;;0.20;0.10;;;29.40;99.90;;;;;;20609719;28;20215;-66
2021/09/07 12:52:30;;;;;;;7.72;0.57;;;28.90;99.90;;;;;;20610821;28;20317;-66
2021/09/07 13:02:34;;;;;;;7.85;1.23;;;28.80;99.90;;;;;;20636907;28;20254;-66
2021/09/07 13:12:39;;;;;;;0.22;0.22;;;28.60;99.90;;;;;;20673042;28;20226;-65
2021/09/07 13:22:44;;;;;;;0.47;0.47;;;28.60;99.90;;;;;;20677721;28;20198;-64
2021/09/07 13:32:50;;;;;;;6.75;1.50;;;28.40;99.90;;;;;;20704651;28;20683;-66
2021/09/07 13:42:54;;;;;;;0.60;0.57;;;28.30;99.90;;;;;;20706270;28;20408;-66
2021/09/07 13:52:59;;;;;;;0.40;0.35;;;28.40;99.90;;;;;;20703924;28;20241;-64
2021/09/07 14:03:02;;;;;;;0.80;0.60;;;28.70;99.90;;;;;;20618106;28;20235;-66
2021/09/07 14:13:08;;;;;;;0.63;0.45;;;30.70;99.90;;;;;;20618515;28;20215;-66
2021/09/07 14:23:11;;;;;;;1.90;1.02;;;30.40;99.90;;;;;;20596536;28;20254;-67
2021/09/07 14:33:16;;;;;;;0.90;0.90;;;29.40;99.90;;;;;;20617886;28;20696;-65
2021/09/07 14:43:20;;;;;;;7.72;2.55;;;29.00;99.90;;;;;;20601300;28;21011;-66
2021/09/07 14:53:25;;;;;;;0.50;0.45;;;29.20;99.90;;;;;;20620092;28;20242;-66
2021/09/07 15:03:28;;;;;;;1.52;0.60;;;29.60;99.90;;;;;;20651240;28;20230;-67
2021/09/07 15:13:34;;;;;;;0.88;0.77;;;30.50;99.90;;;;;;20696277;28;20557;-65
2021/09/07 15:23:37;;;;;;;0.73;0.50;;;31.50;99.90;;;;;;20694767;28;20230;-66
2021/09/07 15:33:43;;;;;;;0.77;0.75;;;30.50;99.90;;;;;;20694432;28;20230;-67
2021/09/07 15:43:47;;;;;;;0.30;0.22;;;30.50;99.90;;;;;;20694218;28;20206;-67
2021/09/07 15:53:52;;;;;;;1.10;0.85;;;30.10;99.90;;;;;;20693701;28;20233;-66
2021/09/07 16:04:00;;;;;;;0.20;0.10;;;30.10;99.90;;;;;;20691522;28;20230;-65
2021/09/07 16:14:07;;;;;;;0.68;0.57;;;29.80;99.90;;;;;;20690898;28;20337;-67
2021/09/07 16:24:12;;;;;;;0.30;0.30;;;29.40;99.90;;;;;;20625975;28;20201;-67
2021/09/07 16:34:17;;;;;;;1.73;0.80;;;28.90;99.90;;;;;;20633935;28;20945;-67
2021/09/07 16:44:21;;;;;;;2.25;1.20;;;28.80;99.90;;;;;;20673771;28;20306;-65
2021/09/07 16:54:46;;;;;;;0.45;0.22;;;28.50;99.90;;;;;;20710065;28;20218;-67
2021/09/07 17:04:50;;;;;;;1.58;1.00;;;28.60;99.90;;;;;;20753058;28;20719;-67
2021/09/07 17:14:55;;;;;;;3.55;1.02;;;28.60;99.90;;;;;;20772883;28;20228;-66
2021/09/07 17:25:01;;;;;;;0.22;0.20;;;28.50;99.90;;;;;;20759101;28;20530;-66
2021/09/07 17:35:11;;;;;;;0.55;0.38;;;28.00;99.90;;;;;;20673177;28;20933;-67
2021/09/07 17:45:15;;;;;;;1.80;0.70;;;27.80;99.90;;;;;;20703835;28;20620;-67
2021/09/07 17:55:23;;;;;;;0.98;0.88;;;27.30;99.90;;;;;;20688801;28;21024;-69
2021/09/07 18:05:27;;;;;;;6.37;0.97;;;27.10;99.90;;;;;;20700614;28;21307;-67
2021/09/07 18:15:32;;;;;;;0.75;0.55;;;27.00;99.90;;;;;;20732680;28;20240;-66
2021/09/07 18:25:36;;;;;;;0.73;0.38;;;26.70;99.90;;;;;;20721290;28;20195;-64
2021/09/07 18:35:41;;;;;;;2.17;0.80;;;26.50;99.90;;;;;;20724211;28;20218;-66
2021/09/07 18:45:45;;;;;;;0.77;0.60;;;26.50;99.90;;;;;;20766546;28;20198;-65
2021/09/07 18:55:50;;;;;;;1.50;0.88;;;26.40;99.90;;;;;;20778300;28;20225;-66
2021/09/07 19:05:53;;;;;;;2.17;1.50;;;26.30;99.90;;;;;;20780362;28;20284;-66
2021/09/07 19:15:58;;;;;;;0.52;0.52;;;26.20;99.90;;;;;;20775785;28;20232;-66
2021/09/07 19:26:03;;;;;;;0.77;0.70;;;26.00;99.90;;;;;;20713541;28;20621;-65
2021/09/07 19:36:08;;;;;;;0.52;0.52;;;25.70;99.90;;;;;;20724578;28;20236;-65
2021/09/07 19:46:12;;;;;;;0.22;0.13;;;25.70;99.90;;;;;;20778828;28;20198;-65
2021/09/07 19:56:17;;;;;;;0.40;0.40;;;25.30;99.90;;;;;;20777632;28;20618;-66
2021/09/07 20:06:21;;;;;;;1.65;0.88;;;25.10;99.90;;;;;;20762635;28;20269;-66
2021/09/07 20:16:26;;;;;;;0.93;0.88;;;24.70;99.90;;;;;;20758460;28;20297;-68
2021/09/07 20:26:30;;;;;;;0.40;0.32;;;24.50;99.90;;;;;;20688540;28;20270;-67
2021/09/07 20:36:35;;;;;;;0.65;0.52;;;24.40;99.90;;;;;;20726396;28;20559;-67
2021/09/07 20:46:39;;;;;;;0.20;0.20;;;24.30;99.90;;;;;;20777545;28;20202;-67
2021/09/07 20:56:44;;;;;;;0.93;0.82;;;24.20;99.90;;;;;;20773647;28;20229;-67
2021/09/07 21:06:47;;;;;;;0.28;0.20;;;24.00;99.90;;;;;;20774444;28;20396;-68
2021/09/07 21:16:52;;;;;;;0.30;0.20;;;24.00;99.90;;;;;;20778897;28;20229;-66
2021/09/07 21:26:56;;;;;;;1.85;1.10;;;23.90;99.90;;;;;;20703329;28;20214;-66
2021/09/07 21:37:01;;;;;;;2.83;1.85;;;23.80;99.90;;;;;;20693563;28;20234;-66
2021/09/07 21:47:05;;;;;;;0.40;0.30;;;23.60;99.90;;;;;;20707793;28;20686;-66
2021/09/07 21:57:12;;;;;;;0.60;0.52;;;23.50;99.90;;;;;;20687801;28;20218;-66
2021/09/07 22:07:17;;;;;;;1.63;0.57;;;23.40;99.90;;;;;;20688701;28;20233;-66
2021/09/07 22:17:22;;;;;;;0.52;0.47;;;23.50;99.90;;;;;;20706761;28;21023;-67
2021/09/07 22:27:26;;;;;;;0.75;0.32;;;23.50;99.90;;;;;;20684432;28;20191;-66
2021/09/07 22:37:31;;;;;;;0.82;0.52;;;23.50;99.90;;;;;;20702699;28;20586;-66
2021/09/07 22:47:35;;;;;;;0.30;0.13;;;23.50;99.90;;;;;;20708724;28;20589;-66
2021/09/07 22:57:40;;;;;;;0.35;0.35;;;23.50;99.90;;;;;;20708138;28;20676;-66
2021/09/07 23:07:44;;;;;;;0.20;0.03;;;23.30;99.90;;;;;;20698625;28;20221;-65
2021/09/07 23:17:49;;;;;;;0.30;0.17;;;23.20;99.90;;;;;;20698616;28;20723;-66
2021/09/07 23:27:53;;;;;;;0.38;0.38;;;23.20;99.90;;;;;;20680746;28;20336;-66
2021/09/07 23:38:02;;;;;;;0.20;0.10;;;23.10;99.90;;;;;;20694513;28;20301;-66
2021/09/07 23:48:06;;;;;;;0.43;0.32;;;23.10;99.90;;;;;;20697176;28;21042;-65
2021/09/07 23:58:11;;;;;;;0.68;0.40;;;23.00;99.90;;;;;;20693971;28;20230;-66
